Time,TemperatureF,DewpointF,PressureIn,WindDirection,WindDirectionDegrees,WindSpeedMPH,WindSpeedGustMPH,Humidity,HourlyPrecipIn,Conditions,Clouds,dailyrainin,SoftwareType,DateUTC
2013-08-16 00:07:00,59.9,59.0,32.00,East,95,0.0,0.0,96,0.00,,,0.00,weatherlink.com 1.10,2013-08-16 02:07:00,
2013-08-16 00:24:00,59.2,58.0,32.00,East,95,0.0,0.0,96,0.00,,,0.00,weatherlink.com 1.10,2013-08-16 02:24:00,
2013-08-16 00:41:00,59.2,58.0,32.00,East,95,0.0,0.0,97,0.00,,,0.00,weatherlink.com 1.10,2013-08-16 02:41:00,
2013-08-16 00:57:00,59.0,58.0,32.00,East,95,0.0,0.0,97,0.00,,,0.00,weatherlink.com 1.10,2013-08-16 02:57:00,
2013-08-16 01:13:00,58.7,58.0,32.00,East,95,0.0,0.0,97,0.00,,,0.00,weatherlink.com 1.10,2013-08-16 03:13:00,
2013-08-16 01:30:00,58.3,57.0,32.00,East,95,0.0,0.0,97,0.00,,,0.00,weatherlink.com 1.10,2013-08-16 03:30:00,
2013-08-16 01:46:00,58.1,57.0,32.00,East,95,0.0,0.0,97,0.00,,,0.00,weatherlink.com 1.10,2013-08-16 03:46:00,
2013-08-16 02:02:00,57.9,57.0,32.00,East,95,0.0,0.0,97,0.00,,,0.00,weatherlink.com 1.10,2013-08-16 04:02:00,
2013-08-16 02:19:00,57.3,56.0,32.00,East,95,0.0,0.0,97,0.00,,,0.00,weatherlink.com 1.10,2013-08-16 04:19:00,
2013-08-16 02:35:00,57.1,56.0,32.00,East,95,0.0,0.0,97,0.00,,,0.00,weatherlink.com 1.10,2013-08-16 04:35:00,
2013-08-16 02:51:00,57.2,57.0,32.00,East,95,0.0,0.0,98,0.00,,,0.00,weatherlink.com 1.10,2013-08-16 04:51:00,
2013-08-16 03:08:00,57.5,57.0,32.00,East,95,0.0,0.0,98,0.00,,,0.00,weatherlink.com 1.10,2013-08-16 05:08:00,
2013-08-16 03:24:00,57.2,57.0,32.00,East,95,0.0,0.0,98,0.00,,,0.00,weatherlink.com 1.10,2013-08-16 05:24:00,
2013-08-16 03:40:00,57.2,57.0,32.00,East,95,0.0,0.0,98,0.00,,,0.00,weatherlink.com 1.10,2013-08-16 05:40:00,
2013-08-16 03:56:00,57.4,57.0,32.00,East,95,0.0,0.0,98,0.00,,,0.00,weatherlink.com 1.10,2013-08-16 05:56:00,
2013-08-16 04:12:00,57.9,57.0,32.00,East,95,0.0,0.0,98,0.00,,,0.00,weatherlink.com 1.10,2013-08-16 06:12:00,
2013-08-16 04:28:00,57.8,57.0,32.00,East,95,0.0,0.0,98,0.00,,,0.00,weatherlink.com 1.10,2013-08-16 06:28:00,
2013-08-16 04:44:00,57.5,57.0,32.00,East,95,0.0,0.0,98,0.00,,,0.00,weatherlink.com 1.10,2013-08-16 06:44:00,
2013-08-16 05:00:00,57.8,57.0,32.00,East,95,0.0,0.0,98,0.00,,,0.00,weatherlink.com 1.10,2013-08-16 07:00:00,
2013-08-16 05:16:00,57.8,57.0,32.00,East,95,0.0,0.0,98,0.00,,,0.00,weatherlink.com 1.10,2013-08-16 07:16:00,
2013-08-16 05:32:00,57.4,57.0,32.00,East,95,0.0,0.0,98,0.00,,,0.00,weatherlink.com 1.10,2013-08-16 07:32:00,
2013-08-16 05:48:00,57.0,56.0,32.00,East,95,0.0,0.0,98,0.00,,,0.00,weatherlink.com 1.10,2013-08-16 07:48:00,
2013-08-16 06:04:00,56.7,56.0,32.00,East,95,0.0,0.0,98,0.00,,,0.00,weatherlink.com 1.10,2013-08-16 08:04:00,
2013-08-16 06:20:00,56.2,56.0,32.00,East,95,0.0,0.0,98,0.00,,,0.00,weatherlink.com 1.10,2013-08-16 08:20:00,
2013-08-16 06:36:00,56.0,55.0,32.00,East,95,0.0,0.0,98,0.00,,,0.00,weatherlink.com 1.10,2013-08-16 08:36:00,
2013-08-16 06:52:00,56.2,56.0,32.00,East,95,0.0,0.0,99,0.00,,,0.00,weatherlink.com 1.10,2013-08-16 08:52:00,
2013-08-16 07:07:00,55.9,55.0,32.00,East,95,0.0,0.0,98,0.00,,,0.00,weatherlink.com 1.10,2013-08-16 09:07:00,
2013-08-16 07:24:00,55.7,55.0,32.00,East,95,0.0,0.0,99,0.00,,,0.00,weatherlink.com 1.10,2013-08-16 09:24:00,
2013-08-16 07:39:00,56.6,56.0,32.00,East,95,0.0,0.0,99,0.00,,,0.00,weatherlink.com 1.10,2013-08-16 09:39:00,
2013-08-16 07:55:00,56.8,57.0,32.00,East,95,0.0,0.0,99,0.00,,,0.00,weatherlink.com 1.10,2013-08-16 09:55:00,
2013-08-16 08:11:00,57.3,57.0,32.00,East,95,0.0,0.0,99,0.00,,,0.00,weatherlink.com 1.10,2013-08-16 10:11:00,
2013-08-16 08:27:00,57.4,57.0,32.00,East,95,0.0,0.0,99,0.00,,,0.00,weatherlink.com 1.10,2013-08-16 10:27:00,
2013-08-16 08:43:00,57.5,57.0,32.00,East,95,0.0,0.0,99,0.00,,,0.00,weatherlink.com 1.10,2013-08-16 10:43:00,
2013-08-16 08:59:00,57.7,57.0,32.00,East,95,0.0,0.0,99,0.00,,,0.00,weatherlink.com 1.10,2013-08-16 10:59:00,
2013-08-16 09:15:00,57.8,58.0,32.00,East,95,0.0,0.0,99,0.00,,,0.00,weatherlink.com 1.10,2013-08-16 11:15:00,
2013-08-16 09:31:00,58.0,58.0,32.00,East,95,0.0,0.0,99,0.00,,,0.00,weatherlink.com 1.10,2013-08-16 11:31:00,
2013-08-16 09:47:00,58.4,58.0,32.00,East,95,0.0,0.0,99,0.00,,,0.00,weatherlink.com 1.10,2013-08-16 11:47:00,
2013-08-16 10:03:00,59.0,59.0,32.00,East,96,0.0,0.0,99,0.00,,,0.00,weatherlink.com 1.10,2013-08-16 12:03:00,
2013-08-16 10:19:00,59.4,59.0,32.00,ENE,68,0.0,0.0,99,0.00,,,0.00,weatherlink.com 1.10,2013-08-16 12:19:00,
2013-08-16 10:35:00,59.5,59.0,32.00,ENE,68,0.0,0.0,99,0.00,,,0.00,weatherlink.com 1.10,2013-08-16 12:35:00,
2013-08-16 10:51:00,60.4,60.0,32.00,ENE,68,0.0,0.0,99,0.00,,,0.00,weatherlink.com 1.10,2013-08-16 12:51:00,
2013-08-16 11:06:00,60.5,60.0,32.00,SSE,149,0.0,0.0,99,0.00,,,0.00,weatherlink.com 1.10,2013-08-16 13:06:00,
2013-08-16 11:23:00,61.5,61.0,32.00,SSE,149,0.0,0.0,99,0.00,,,0.00,weatherlink.com 1.10,2013-08-16 13:23:00,
2013-08-16 11:39:00,63.0,63.0,32.00,SSW,207,0.0,0.0,99,0.00,,,0.00,weatherlink.com 1.10,2013-08-16 13:39:00,
2013-08-16 11:55:00,63.6,62.0,32.00,SW,225,0.0,0.0,96,0.00,,,0.00,weatherlink.com 1.10,2013-08-16 13:55:00,
2013-08-16 12:11:00,64.7,61.0,32.00,SSE,163,0.0,0.0,89,0.00,,,0.00,weatherlink.com 1.10,2013-08-16 14:11:00,
2013-08-16 12:27:00,65.1,60.0,32.00,SSE,163,0.0,0.0,83,0.00,,,0.00,weatherlink.com 1.10,2013-08-16 14:27:00,
2013-08-16 12:43:00,65.5,60.0,32.00,SSE,162,0.0,0.0,82,0.00,,,0.00,weatherlink.com 1.10,2013-08-16 14:43:00,
2013-08-16 12:59:00,65.8,60.0,32.00,ENE,74,0.0,3.0,83,0.00,,,0.00,weatherlink.com 1.10,2013-08-16 14:59:00,
2013-08-16 13:14:00,66.3,61.0,32.00,East,95,1.0,6.0,82,0.00,,,0.00,weatherlink.com 1.10,2013-08-16 15:14:00,
2013-08-16 13:31:00,66.9,61.0,32.00,East,95,0.0,3.0,81,0.00,,,0.00,weatherlink.com 1.10,2013-08-16 15:31:00,
2013-08-16 13:47:00,67.4,61.0,32.00,East,82,1.0,4.0,81,0.00,,,0.00,weatherlink.com 1.10,2013-08-16 15:47:00,
2013-08-16 14:02:00,68.2,61.0,32.00,East,88,2.0,6.0,78,0.00,,,0.00,weatherlink.com 1.10,2013-08-16 16:02:00,
2013-08-16 14:19:00,68.9,61.0,32.00,East,94,0.0,6.0,76,0.00,,,0.00,weatherlink.com 1.10,2013-08-16 16:19:00,
2013-08-16 14:35:00,70.1,62.0,32.00,SE,124,3.0,7.0,75,0.00,,,0.00,weatherlink.com 1.10,2013-08-16 16:35:00,
2013-08-16 14:51:00,69.5,60.0,32.00,ENE,61,8.0,9.0,72,0.00,,,0.00,weatherlink.com 1.10,2013-08-16 16:51:00,
2013-08-16 15:07:00,69.9,61.0,32.00,ENE,70,0.0,5.0,73,0.00,,,0.00,weatherlink.com 1.10,2013-08-16 17:07:00,
2013-08-16 15:23:00,71.3,61.0,32.00,ESE,108,4.0,5.0,70,0.00,,,0.00,weatherlink.com 1.10,2013-08-16 17:23:00,
2013-08-16 15:39:00,70.3,60.0,32.00,ESE,117,3.0,7.0,71,0.00,,,0.00,weatherlink.com 1.10,2013-08-16 17:39:00,
2013-08-16 15:55:00,70.1,60.0,32.00,ENE,71,2.0,6.0,71,0.00,,,0.00,weatherlink.com 1.10,2013-08-16 17:55:00,
2013-08-16 16:11:00,70.3,61.0,32.00,East,96,2.0,5.0,72,0.00,,,0.00,weatherlink.com 1.10,2013-08-16 18:11:00,
2013-08-16 16:27:00,71.3,61.0,32.00,East,80,2.0,8.0,71,0.00,,,0.00,weatherlink.com 1.10,2013-08-16 18:27:00,
2013-08-16 16:44:00,70.7,62.0,32.00,SE,143,1.0,4.0,74,0.00,,,0.00,weatherlink.com 1.10,2013-08-16 18:44:00,
2013-08-16 16:59:00,70.4,61.0,32.00,East,90,3.0,7.0,71,0.00,,,0.00,weatherlink.com 1.10,2013-08-16 18:59:00,
2013-08-16 17:15:00,71.1,62.0,32.00,East,96,0.0,7.0,73,0.00,,,0.00,weatherlink.com 1.10,2013-08-16 19:15:00,
2013-08-16 17:31:00,70.9,62.0,32.00,East,91,0.0,7.0,74,0.00,,,0.00,weatherlink.com 1.10,2013-08-16 19:31:00,
2013-08-16 17:47:00,71.1,62.0,32.00,ESE,103,1.0,8.0,74,0.00,,,0.00,weatherlink.com 1.10,2013-08-16 19:47:00,
2013-08-16 18:04:00,72.0,63.0,32.00,ESE,123,5.0,9.0,73,0.00,,,0.00,weatherlink.com 1.10,2013-08-16 20:04:00,
2013-08-16 18:20:00,72.4,62.0,32.00,ESE,118,3.0,8.0,69,0.00,,,0.00,weatherlink.com 1.10,2013-08-16 20:20:00,
2013-08-16 18:36:00,73.0,63.0,32.00,East,98,2.0,5.0,70,0.00,,,0.00,weatherlink.com 1.10,2013-08-16 20:36:00,
2013-08-16 18:52:00,73.5,63.0,32.00,ESE,116,9.0,9.0,69,0.00,,,0.00,weatherlink.com 1.10,2013-08-16 20:52:00,
2013-08-16 19:08:00,73.3,63.0,32.00,ENE,76,1.0,9.0,69,0.00,,,0.00,weatherlink.com 1.10,2013-08-16 21:08:00,
2013-08-16 19:24:00,73.5,63.0,32.00,ESE,109,1.0,7.0,70,0.00,,,0.00,weatherlink.com 1.10,2013-08-16 21:24:00,
2013-08-16 19:40:00,73.0,61.0,32.00,ESE,115,1.0,8.0,67,0.00,,,0.00,weatherlink.com 1.10,2013-08-16 21:40:00,
2013-08-16 19:56:00,72.2,61.0,32.00,ENE,71,3.0,9.0,68,0.00,,,0.00,weatherlink.com 1.10,2013-08-16 21:56:00,
2013-08-16 20:12:00,72.4,62.0,32.00,East,81,0.0,8.0,69,0.00,,,0.00,weatherlink.com 1.10,2013-08-16 22:12:00,
2013-08-16 20:28:00,72.0,61.0,32.00,ENE,74,7.0,9.0,68,0.00,,,0.00,weatherlink.com 1.10,2013-08-16 22:28:00,
2013-08-16 20:44:00,71.5,62.0,32.00,East,86,3.0,7.0,72,0.00,,,0.00,weatherlink.com 1.10,2013-08-16 22:44:00,
2013-08-16 21:00:00,71.1,62.0,32.00,ENE,71,4.0,8.0,72,0.00,,,0.00,weatherlink.com 1.10,2013-08-16 23:00:00,
2013-08-16 21:16:00,70.4,62.0,32.00,East,96,1.0,7.0,74,0.00,,,0.00,weatherlink.com 1.10,2013-08-16 23:16:00,
2013-08-16 21:32:00,69.8,62.0,32.00,East,94,1.0,5.0,77,0.00,,,0.00,weatherlink.com 1.10,2013-08-16 23:32:00,
2013-08-16 21:48:00,69.0,62.0,32.00,East,92,1.0,3.0,79,0.00,,,0.00,weatherlink.com 1.10,2013-08-16 23:48:00,
2013-08-16 22:05:00,68.0,62.0,32.00,East,92,0.0,3.0,81,0.00,,,0.00,weatherlink.com 1.10,2013-08-17 00:05:00,
2013-08-16 22:21:00,67.1,61.0,32.00,East,92,0.0,0.0,82,0.00,,,0.00,weatherlink.com 1.10,2013-08-17 00:21:00,
2013-08-16 22:37:00,66.0,61.0,32.00,East,92,0.0,1.0,85,0.00,,,0.00,weatherlink.com 1.10,2013-08-17 00:37:00,
2013-08-16 22:52:00,65.3,61.0,32.00,East,92,0.0,1.0,87,0.00,,,0.00,weatherlink.com 1.10,2013-08-17 00:52:00,
2013-08-16 23:09:00,65.1,61.0,32.00,East,92,0.0,1.0,87,0.00,,,0.00,weatherlink.com 1.10,2013-08-17 01:09:00,
2013-08-16 23:25:00,64.7,61.0,32.00,East,92,0.0,0.0,88,0.00,,,0.00,weatherlink.com 1.10,2013-08-17 01:25:00,
2013-08-16 23:41:00,64.5,61.0,32.00,East,92,0.0,1.0,87,0.00,,,0.00,weatherlink.com 1.10,2013-08-17 01:41:00,
2013-08-16 23:57:00,64.0,60.0,32.00,East,92,0.0,0.0,88,0.00,,,0.00,weatherlink.com 1.10,2013-08-17 01:57:00,